Terminal Aerodrome Forecast
Issued by NWS Jackson, MS

Home | Current Version | Previous Version | Text Only | Print | Product List | Glossary On
Versions: 1 2 3 4 5 6 7 8 9 10 11 12 13 14 15 16 17 18
161
FTUS44 KMEG 211739
TAFTUP
TAF
KTUP 211739Z 2118/2218 14005KT P6SM SCT200
     FM220300 15007KT P6SM FEW010 OVC045
     FM220500 16010KT 6SM -SHRA VCTS BKN009 OVC015CB
      TEMPO 2206/2207 VRB20G30KT 1SM +TSRAGS BKN005 OVC015CB
     FM220900 23011KT P6SM VCSH SCT020 BKN080=

USA.gov is the U.S. government's official web portal to all federal, state and local government web resources and services.